Terminal Aerodrome Forecast
Issued by NWS

Home | Current Version | Previous Version | Graphics & Text | Print | Product List | Glossary On
Versions: 1 2 3 4 5 6 7 8 9 10 11 12 13 14 15 16 17
836
FTUS41 KCLE 220524
TAFFDY
TAF
KFDY 220524Z 2206/2306 20007KT P6SM VCSH SCT040 BKN120
      TEMPO 2209/2213 5SM BR
     FM221600 25011KT 6SM HZ VCSH BKN040
     FM230100 24005KT P6SM SCT045=

USA.gov is the U.S. government's official web portal to all federal, state and local government web resources and services.